Grand Forks International Airport
KGFK : now visible

Airfield :











YOU CAN JOIN US ON...

 
LOGIN :

Register | Disclaimer

   EN    FR    IT 

 









Legend :    VFR   Marginal VFR   IFR   Intensive IFR   Very Intensive IFR
Visi :
Ceiling :
>= 8 km
>= 3000ft
5 to 8 km
1000 to 3000 ft
1500m to 5 km
500 to 1000 ft
800 to 1500m
200 to 500 ft
< 800m
< 200 ft
Symbols :   Thunderstorms  Fog  Heavy snow  Heavy precipitations  Wind > 20 kt






- Airport Elevation : 845 ft
- IATA code : GFK


KGFK - Grand Forks International

CURRENT METAR :
  • 262253Z 02012KT 10SM OVC007 M08/M09 A3000 RMK AO2 SNB10E19 SLP175 P0000 T10781094

EXPIRED METARs :
  • 262153Z 01015KT 10SM OVC006 M08/M10 A2997 RMK AO2 SLP167 T10781100
  • 262053Z 02016KT 10SM OVC006 M07/M09 A2996 RMK AO2 SLP162 T10721094 53005

TAF KGFK
Valid from the 26 at 21:00 until the 27 at 18:00 UTC


262123Z 2621/2718 02013KT P6SM OVC006
FM270300 35008KT P6SM OVC005



MET'MAP, your aeronautical weather chart ! - Copyright ORBIFLY December 2007 - Disclaimer

ORBIFLY MET'MAP TEAM :

Programming & Development : Alexandra Zaïnal
Concept & original design : Baudouin d'Aumeries
Assistance for programming : Marc-Olivier Méhu
Technical & hardware support : Manuel Goepfert

Contact : metmap@orbifly.com




SOURCES & CREDITS :

   NOAA       Earth
Advisory